Truthville, New York
Current Conditions -  °F | °C
As of 7:53 PM on Sunday 21 Dec 2014 (Local Time) from KGFL Reporting Station
Overcast Overcast  
Wind Chill: -2°   Ceiling: 3300
Heat Index: -2°   Visibility: 10mi
Dew Point: -6°   Wind: 3mph
Humidity: 78%   Direction: 70°ENE
Pressure: 30.37"   Gusts: NA
Location:  43.3389°N, 73.3194°W
Report Text: KGFL 220053Z AUTO 07003KT 10SM OVC033 M02/M06 A3037 RMK AO2 SLP294 T10221056
Loading
Personal Weather Stations






























Interactive Weather Map New forecast layout! Learn more

10-Day Weather Forecast

Advertisements
Track Severe Weather on mobile